sensor_id;sensor_type;location;lat;lon;timestamp;temperature;humidity
33109;HTU21D;19481;51.118;6.940;2023-05-20T00:03:39;12.45;43.71
33109;HTU21D;19481;51.118;6.940;2023-05-20T00:08:40;12.42;43.66
33109;HTU21D;19481;51.118;6.940;2023-05-20T00:13:43;12.40;43.74
33109;HTU21D;19481;51.118;6.940;2023-05-20T00:18:45;12.35;43.80
33109;HTU21D;19481;51.118;6.940;2023-05-20T00:23:47;12.21;44.06
33109;HTU21D;19481;51.118;6.940;2023-05-20T00:28:50;12.10;44.28
33109;HTU21D;19481;51.118;6.940;2023-05-20T00:33:51;11.97;44.54
33109;HTU21D;19481;51.118;6.940;2023-05-20T00:38:53;11.93;44.67
33109;HTU21D;19481;51.118;6.940;2023-05-20T00:43:56;11.86;44.78
33109;HTU21D;19481;51.118;6.940;2023-05-20T00:48:57;11.70;45.34
33109;HTU21D;19481;51.118;6.940;2023-05-20T00:53:59;11.64;45.38
33109;HTU21D;19481;51.118;6.940;2023-05-20T00:59:03;11.63;45.37
33109;HTU21D;19481;51.118;6.940;2023-05-20T01:04:05;11.49;45.83
33109;HTU21D;19481;51.118;6.940;2023-05-20T01:09:07;11.40;46.11
33109;HTU21D;19481;51.118;6.940;2023-05-20T01:14:11;11.37;46.06
33109;HTU21D;19481;51.118;6.940;2023-05-20T01:19:21;11.39;46.07
33109;HTU21D;19481;51.118;6.940;2023-05-20T01:24:24;11.29;46.34
33109;HTU21D;19481;51.118;6.940;2023-05-20T01:29:25;11.20;46.65
33109;HTU21D;19481;51.118;6.940;2023-05-20T01:34:27;11.17;46.73
33109;HTU21D;19481;51.118;6.940;2023-05-20T01:39:30;11.04;47.25
33109;HTU21D;19481;51.118;6.940;2023-05-20T01:44:34;11.07;47.26
33109;HTU21D;19481;51.118;6.940;2023-05-20T01:49:35;11.10;47.17
33109;HTU21D;19481;51.118;6.940;2023-05-20T01:54:38;11.11;47.01
33109;HTU21D;19481;51.118;6.940;2023-05-20T01:59:40;11.12;46.96
33109;HTU21D;19481;51.118;6.940;2023-05-20T02:04:42;11.01;47.36
33109;HTU21D;19481;51.118;6.940;2023-05-20T02:09:48;10.93;47.61
33109;HTU21D;19481;51.118;6.940;2023-05-20T02:14:49;10.83;47.99
33109;HTU21D;19481;51.118;6.940;2023-05-20T02:19:51;10.75;48.18
33109;HTU21D;19481;51.118;6.940;2023-05-20T02:24:54;10.63;48.53
33109;HTU21D;19481;51.118;6.940;2023-05-20T02:29:56;10.59;48.67
33109;HTU21D;19481;51.118;6.940;2023-05-20T02:34:57;10.65;48.72
33109;HTU21D;19481;51.118;6.940;2023-05-20T02:40:00;10.77;48.28
33109;HTU21D;19481;51.118;6.940;2023-05-20T02:45:02;10.79;48.30
33109;HTU21D;19481;51.118;6.940;2023-05-20T02:50:05;10.89;47.87
33109;HTU21D;19481;51.118;6.940;2023-05-20T02:55:09;10.81;48.32
33109;HTU21D;19481;51.118;6.940;2023-05-20T03:00:12;10.79;48.58
33109;HTU21D;19481;51.118;6.940;2023-05-20T03:05:14;10.85;48.30
33109;HTU21D;19481;51.118;6.940;2023-05-20T03:10:16;10.72;48.76
33109;HTU21D;19481;51.118;6.940;2023-05-20T03:15:18;10.70;48.95
33109;HTU21D;19481;51.118;6.940;2023-05-20T03:20:20;10.65;49.43
33109;HTU21D;19481;51.118;6.940;2023-05-20T03:25:23;10.59;49.11
33109;HTU21D;19481;51.118;6.940;2023-05-20T03:30:25;10.56;49.32
33109;HTU21D;19481;51.118;6.940;2023-05-20T03:35:27;10.49;49.50
33109;HTU21D;19481;51.118;6.940;2023-05-20T03:40:31;10.38;49.69
33109;HTU21D;19481;51.118;6.940;2023-05-20T03:45:32;10.36;49.99
33109;HTU21D;19481;51.118;6.940;2023-05-20T03:50:34;10.42;49.87
33109;HTU21D;19481;51.118;6.940;2023-05-20T03:55:37;10.46;49.65
33109;HTU21D;19481;51.118;6.940;2023-05-20T04:00:38;10.37;50.21
33109;HTU21D;19481;51.118;6.940;2023-05-20T04:05:40;10.52;50.12
33109;HTU21D;19481;51.118;6.940;2023-05-20T04:10:43;10.73;49.56
33109;HTU21D;19481;51.118;6.940;2023-05-20T04:15:46;11.07;48.92
33109;HTU21D;19481;51.118;6.940;2023-05-20T04:20:48;11.82;47.07
33109;HTU21D;19481;51.118;6.940;2023-05-20T04:25:50;12.14;47.47
33109;HTU21D;19481;51.118;6.940;2023-05-20T04:30:57;12.43;47.32
33109;HTU21D;19481;51.118;6.940;2023-05-20T04:35:59;12.79;46.11
33109;HTU21D;19481;51.118;6.940;2023-05-20T04:41:04;14.33;44.54
33109;HTU21D;19481;51.118;6.940;2023-05-20T04:46:06;15.56;41.90
33109;HTU21D;19481;51.118;6.940;2023-05-20T04:51:08;16.08;42.74
33109;HTU21D;19481;51.118;6.940;2023-05-20T04:56:11;16.70;43.03
33109;HTU21D;19481;51.118;6.940;2023-05-20T05:01:12;15.84;45.80
33109;HTU21D;19481;51.118;6.940;2023-05-20T05:06:14;14.47;48.75
33109;HTU21D;19481;51.118;6.940;2023-05-20T05:11:17;14.28;47.85
33109;HTU21D;19481;51.118;6.940;2023-05-20T05:16:18;14.27;46.93
33109;HTU21D;19481;51.118;6.940;2023-05-20T05:21:20;14.41;46.15
33109;HTU21D;19481;51.118;6.940;2023-05-20T05:26:23;14.56;45.80
33109;HTU21D;19481;51.118;6.940;2023-05-20T05:31:25;14.84;44.98
33109;HTU21D;19481;51.118;6.940;2023-05-20T05:36:27;16.14;42.41
33109;HTU21D;19481;51.118;6.940;2023-05-20T05:41:30;18.14;39.61
33109;HTU21D;19481;51.118;6.940;2023-05-20T05:46:32;19.45;38.82
33109;HTU21D;19481;51.118;6.940;2023-05-20T05:51:33;20.79;37.63
33109;HTU21D;19481;51.118;6.940;2023-05-20T05:56:36;21.20;37.82
33109;HTU21D;19481;51.118;6.940;2023-05-20T06:01:38;21.53;38.28
33109;HTU21D;19481;51.118;6.940;2023-05-20T06:06:39;19.09;44.76
33109;HTU21D;19481;51.118;6.940;2023-05-20T06:11:42;17.52;46.73
33109;HTU21D;19481;51.118;6.940;2023-05-20T06:16:44;16.78;46.57
33109;HTU21D;19481;51.118;6.940;2023-05-20T06:21:45;16.29;46.20
33109;HTU21D;19481;51.118;6.940;2023-05-20T06:26:48;16.04;45.51
33109;HTU21D;19481;51.118;6.940;2023-05-20T06:31:50;15.97;44.79
33109;HTU21D;19481;51.118;6.940;2023-05-20T06:36:52;15.91;44.45
33109;HTU21D;19481;51.118;6.940;2023-05-20T06:41:54;15.83;44.42
33109;HTU21D;19481;51.118;6.940;2023-05-20T06:46:56;15.96;43.74
33109;HTU21D;19481;51.118;6.940;2023-05-20T06:51:58;15.97;43.76
33109;HTU21D;19481;51.118;6.940;2023-05-20T06:57:01;15.91;43.92
33109;HTU21D;19481;51.118;6.940;2023-05-20T07:02:03;15.74;44.23
33109;HTU21D;19481;51.118;6.940;2023-05-20T07:07:04;15.87;43.84
33109;HTU21D;19481;51.118;6.940;2023-05-20T07:12:07;15.89;43.89
33109;HTU21D;19481;51.118;6.940;2023-05-20T07:17:10;16.10;43.64
33109;HTU21D;19481;51.118;6.940;2023-05-20T07:22:11;16.36;43.00
33109;HTU21D;19481;51.118;6.940;2023-05-20T07:27:14;16.63;42.77
33109;HTU21D;19481;51.118;6.940;2023-05-20T07:32:16;16.94;42.51
33109;HTU21D;19481;51.118;6.940;2023-05-20T07:37:17;17.13;42.54
33109;HTU21D;19481;51.118;6.940;2023-05-20T07:42:20;17.28;42.47
33109;HTU21D;19481;51.118;6.940;2023-05-20T07:47:22;17.35;42.58
33109;HTU21D;19481;51.118;6.940;2023-05-20T07:52:24;17.60;42.26
33109;HTU21D;19481;51.118;6.940;2023-05-20T07:57:27;17.87;41.94
33109;HTU21D;19481;51.118;6.940;2023-05-20T08:02:28;17.79;42.58
33109;HTU21D;19481;51.118;6.940;2023-05-20T08:07:30;17.70;42.81
33109;HTU21D;19481;51.118;6.940;2023-05-20T08:12:33;17.62;43.05
33109;HTU21D;19481;51.118;6.940;2023-05-20T08:17:34;17.79;42.59
33109;HTU21D;19481;51.118;6.940;2023-05-20T08:22:37;18.02;42.32
33109;HTU21D;19481;51.118;6.940;2023-05-20T08:27:40;18.63;41.45
33109;HTU21D;19481;51.118;6.940;2023-05-20T08:32:42;18.72;41.76
33109;HTU21D;19481;51.118;6.940;2023-05-20T08:37:44;19.02;41.33
33109;HTU21D;19481;51.118;6.940;2023-05-20T08:42:48;19.56;40.65
33109;HTU21D;19481;51.118;6.940;2023-05-20T08:47:51;19.65;41.34
33109;HTU21D;19481;51.118;6.940;2023-05-20T08:52:53;20.58;39.69
33109;HTU21D;19481;51.118;6.940;2023-05-20T08:57:56;21.70;38.46
33109;HTU21D;19481;51.118;6.940;2023-05-20T09:02:58;21.78;39.39
33109;HTU21D;19481;51.118;6.940;2023-05-20T09:08:04;21.77;39.23
33109;HTU21D;19481;51.118;6.940;2023-05-20T09:13:09;20.88;40.77
33109;HTU21D;19481;51.118;6.940;2023-05-20T09:18:12;20.17;42.45
33109;HTU21D;19481;51.118;6.940;2023-05-20T09:23:13;19.89;42.34
33109;HTU21D;19481;51.118;6.940;2023-05-20T09:28:18;19.33;42.43
33109;HTU21D;19481;51.118;6.940;2023-05-20T09:33:20;19.37;42.05
33109;HTU21D;19481;51.118;6.940;2023-05-20T09:38:28;19.15;41.97
33109;HTU21D;19481;51.118;6.940;2023-05-20T09:43:37;19.71;40.47
33109;HTU21D;19481;51.118;6.940;2023-05-20T09:48:38;19.83;40.37
33109;HTU21D;19481;51.118;6.940;2023-05-20T09:53:40;20.25;39.58
33109;HTU21D;19481;51.118;6.940;2023-05-20T09:58:45;20.70;38.86
33109;HTU21D;19481;51.118;6.940;2023-05-20T10:03:48;20.78;39.02
33109;HTU21D;19481;51.118;6.940;2023-05-20T10:09:00;20.31;40.11
33109;HTU21D;19481;51.118;6.940;2023-05-20T10:14:21;20.49;40.31
33109;HTU21D;19481;51.118;6.940;2023-05-20T10:19:27;20.07;40.61
33109;HTU21D;19481;51.118;6.940;2023-05-20T10:24:31;20.45;39.72
33109;HTU21D;19481;51.118;6.940;2023-05-20T10:29:45;20.51;38.98
33109;HTU21D;19481;51.118;6.940;2023-05-20T10:34:48;19.81;41.24
33109;HTU21D;19481;51.118;6.940;2023-05-20T10:39:50;19.77;41.06
33109;HTU21D;19481;51.118;6.940;2023-05-20T10:44:53;19.38;41.87
33109;HTU21D;19481;51.118;6.940;2023-05-20T10:49:55;19.17;41.87
33109;HTU21D;19481;51.118;6.940;2023-05-20T10:54:59;19.12;41.83
33109;HTU21D;19481;51.118;6.940;2023-05-20T11:00:03;18.84;42.79
33109;HTU21D;19481;51.118;6.940;2023-05-20T11:05:06;19.13;41.54
33109;HTU21D;19481;51.118;6.940;2023-05-20T11:10:11;19.22;41.33
33109;HTU21D;19481;51.118;6.940;2023-05-20T11:15:14;19.45;41.32
33109;HTU21D;19481;51.118;6.940;2023-05-20T11:20:18;19.69;40.68
33109;HTU21D;19481;51.118;6.940;2023-05-20T11:25:20;19.68;40.97
33109;HTU21D;19481;51.118;6.940;2023-05-20T11:30:24;20.26;40.26
33109;HTU21D;19481;51.118;6.940;2023-05-20T11:35:27;21.07;38.70
33109;HTU21D;19481;51.118;6.940;2023-05-20T11:40:31;21.10;38.88
33109;HTU21D;19481;51.118;6.940;2023-05-20T11:45:40;21.05;40.09
33109;HTU21D;19481;51.118;6.940;2023-05-20T11:50:43;21.02;40.12
33109;HTU21D;19481;51.118;6.940;2023-05-20T11:55:46;21.33;39.53
33109;HTU21D;19481;51.118;6.940;2023-05-20T12:00:50;21.55;39.22
33109;HTU21D;19481;51.118;6.940;2023-05-20T12:05:52;21.81;39.10
33109;HTU21D;19481;51.118;6.940;2023-05-20T12:10:53;21.34;40.35
33109;HTU21D;19481;51.118;6.940;2023-05-20T12:15:56;21.17;40.49
33109;HTU21D;19481;51.118;6.940;2023-05-20T12:20:58;20.98;40.78
33109;HTU21D;19481;51.118;6.940;2023-05-20T12:26:00;21.39;39.73
33109;HTU21D;19481;51.118;6.940;2023-05-20T12:31:03;21.02;40.62
33109;HTU21D;19481;51.118;6.940;2023-05-20T12:36:05;21.34;39.94
33109;HTU21D;19481;51.118;6.940;2023-05-20T12:41:07;21.78;39.07
33109;HTU21D;19481;51.118;6.940;2023-05-20T12:46:11;22.19;38.46
33109;HTU21D;19481;51.118;6.940;2023-05-20T12:51:12;22.10;38.98
33109;HTU21D;19481;51.118;6.940;2023-05-20T12:56:14;21.91;39.49
33109;HTU21D;19481;51.118;6.940;2023-05-20T13:01:17;21.98;39.04
33109;HTU21D;19481;51.118;6.940;2023-05-20T13:06:19;21.69;39.91
33109;HTU21D;19481;51.118;6.940;2023-05-20T13:11:20;21.57;40.17
33109;HTU21D;19481;51.118;6.940;2023-05-20T13:16:24;21.43;39.61
33109;HTU21D;19481;51.118;6.940;2023-05-20T13:21:25;21.65;39.39
33109;HTU21D;19481;51.118;6.940;2023-05-20T13:26:27;21.63;39.46
33109;HTU21D;19481;51.118;6.940;2023-05-20T13:31:30;22.02;38.57
33109;HTU21D;19481;51.118;6.940;2023-05-20T13:36:32;22.14;38.49
33109;HTU21D;19481;51.118;6.940;2023-05-20T13:41:33;21.76;39.47
33109;HTU21D;19481;51.118;6.940;2023-05-20T13:46:36;21.58;39.57
33109;HTU21D;19481;51.118;6.940;2023-05-20T13:51:38;21.79;39.02
33109;HTU21D;19481;51.118;6.940;2023-05-20T13:56:40;21.73;39.25
33109;HTU21D;19481;51.118;6.940;2023-05-20T14:01:43;21.81;38.94
33109;HTU21D;19481;51.118;6.940;2023-05-20T14:06:45;21.31;39.99
33109;HTU21D;19481;51.118;6.940;2023-05-20T14:11:47;21.73;38.94
33109;HTU21D;19481;51.118;6.940;2023-05-20T14:16:51;21.78;39.07
33109;HTU21D;19481;51.118;6.940;2023-05-20T14:21:53;21.42;39.91
33109;HTU21D;19481;51.118;6.940;2023-05-20T14:26:55;21.06;40.48
33109;HTU21D;19481;51.118;6.940;2023-05-20T14:31:58;21.14;39.99
33109;HTU21D;19481;51.118;6.940;2023-05-20T14:37:00;21.03;40.03
33109;HTU21D;19481;51.118;6.940;2023-05-20T14:42:07;21.20;39.71
33109;HTU21D;19481;51.118;6.940;2023-05-20T14:47:10;21.40;39.25
33109;HTU21D;19481;51.118;6.940;2023-05-20T14:52:11;21.32;39.62
33109;HTU21D;19481;51.118;6.940;2023-05-20T14:57:13;21.20;39.94
33109;HTU21D;19481;51.118;6.940;2023-05-20T15:02:17;20.89;40.55
33109;HTU21D;19481;51.118;6.940;2023-05-20T15:07:18;20.92;40.20
33109;HTU21D;19481;51.118;6.940;2023-05-20T15:12:20;20.99;40.04
33109;HTU21D;19481;51.118;6.940;2023-05-20T15:17:23;21.08;39.72
33109;HTU21D;19481;51.118;6.940;2023-05-20T15:22:25;20.99;40.01
33109;HTU21D;19481;51.118;6.940;2023-05-20T15:27:26;20.80;40.45
33109;HTU21D;19481;51.118;6.940;2023-05-20T15:32:29;20.49;40.94
33109;HTU21D;19481;51.118;6.940;2023-05-20T15:37:31;20.32;41.13
33109;HTU21D;19481;51.118;6.940;2023-05-20T15:42:32;20.22;41.13
33109;HTU21D;19481;51.118;6.940;2023-05-20T15:47:35;20.13;41.39
33109;HTU21D;19481;51.118;6.940;2023-05-20T15:52:37;20.13;40.97
33109;HTU21D;19481;51.118;6.940;2023-05-20T15:57:39;19.90;41.36
33109;HTU21D;19481;51.118;6.940;2023-05-20T16:02:41;19.92;41.31
33109;HTU21D;19481;51.118;6.940;2023-05-20T16:07:43;19.72;41.52
33109;HTU21D;19481;51.118;6.940;2023-05-20T16:12:45;19.66;41.41
33109;HTU21D;19481;51.118;6.940;2023-05-20T16:17:48;19.71;41.32
33109;HTU21D;19481;51.118;6.940;2023-05-20T16:22:50;19.54;41.63
33109;HTU21D;19481;51.118;6.940;2023-05-20T16:27:51;19.54;41.62
33109;HTU21D;19481;51.118;6.940;2023-05-20T16:32:55;19.35;42.27
33109;HTU21D;19481;51.118;6.940;2023-05-20T16:37:56;19.42;41.77
33109;HTU21D;19481;51.118;6.940;2023-05-20T16:42:58;19.24;42.09
33109;HTU21D;19481;51.118;6.940;2023-05-20T16:48:01;19.11;42.26
33109;HTU21D;19481;51.118;6.940;2023-05-20T16:53:02;19.16;42.12
33109;HTU21D;19481;51.118;6.940;2023-05-20T16:58:04;18.98;42.52
33109;HTU21D;19481;51.118;6.940;2023-05-20T17:03:07;19.03;42.58
33109;HTU21D;19481;51.118;6.940;2023-05-20T17:08:08;18.94;42.58
33109;HTU21D;19481;51.118;6.940;2023-05-20T17:13:10;18.94;42.55
33109;HTU21D;19481;51.118;6.940;2023-05-20T17:18:13;18.93;42.55
33109;HTU21D;19481;51.118;6.940;2023-05-20T17:23:15;18.98;42.48
33109;HTU21D;19481;51.118;6.940;2023-05-20T17:28:16;18.89;42.71
33109;HTU21D;19481;51.118;6.940;2023-05-20T17:33:19;18.77;43.35
33109;HTU21D;19481;51.118;6.940;2023-05-20T17:38:21;18.81;42.97
33109;HTU21D;19481;51.118;6.940;2023-05-20T17:43:25;18.76;43.12
33109;HTU21D;19481;51.118;6.940;2023-05-20T17:48:28;18.72;43.27
33109;HTU21D;19481;51.118;6.940;2023-05-20T17:53:30;18.58;43.53
33109;HTU21D;19481;51.118;6.940;2023-05-20T17:58:31;18.54;43.63
33109;HTU21D;19481;51.118;6.940;2023-05-20T18:03:34;18.49;43.75
33109;HTU21D;19481;51.118;6.940;2023-05-20T18:08:36;18.39;44.06
33109;HTU21D;19481;51.118;6.940;2023-05-20T18:13:38;18.30;44.19
33109;HTU21D;19481;51.118;6.940;2023-05-20T18:18:41;18.19;44.33
33109;HTU21D;19481;51.118;6.940;2023-05-20T18:23:42;18.08;44.48
33109;HTU21D;19481;51.118;6.940;2023-05-20T18:28:44;18.00;44.68
33109;HTU21D;19481;51.118;6.940;2023-05-20T18:33:47;17.92;44.96
33109;HTU21D;19481;51.118;6.940;2023-05-20T18:38:48;17.73;45.32
33109;HTU21D;19481;51.118;6.940;2023-05-20T18:43:50;17.51;45.81
33109;HTU21D;19481;51.118;6.940;2023-05-20T18:48:53;17.45;45.89
33109;HTU21D;19481;51.118;6.940;2023-05-20T18:53:54;17.30;46.10
33109;HTU21D;19481;51.118;6.940;2023-05-20T18:58:56;17.19;46.22
33109;HTU21D;19481;51.118;6.940;2023-05-20T19:03:59;17.03;46.50
33109;HTU21D;19481;51.118;6.940;2023-05-20T19:09:01;16.89;46.76
33109;HTU21D;19481;51.118;6.940;2023-05-20T19:14:03;16.64;47.39
33109;HTU21D;19481;51.118;6.940;2023-05-20T19:19:07;16.51;47.65
33109;HTU21D;19481;51.118;6.940;2023-05-20T19:24:09;16.36;47.91
33109;HTU21D;19481;51.118;6.940;2023-05-20T19:29:11;16.26;48.13
33109;HTU21D;19481;51.118;6.940;2023-05-20T19:34:15;16.03;48.76
33109;HTU21D;19481;51.118;6.940;2023-05-20T19:39:17;16.04;48.48
33109;HTU21D;19481;51.118;6.940;2023-05-20T19:44:19;16.08;48.28
33109;HTU21D;19481;51.118;6.940;2023-05-20T19:49:22;16.00;48.50
33109;HTU21D;19481;51.118;6.940;2023-05-20T19:54:25;15.92;48.60
33109;HTU21D;19481;51.118;6.940;2023-05-20T19:59:27;15.77;49.08
33109;HTU21D;19481;51.118;6.940;2023-05-20T20:04:30;15.69;49.27
33109;HTU21D;19481;51.118;6.940;2023-05-20T20:09:31;15.69;49.04
33109;HTU21D;19481;51.118;6.940;2023-05-20T20:14:33;15.54;49.51
33109;HTU21D;19481;51.118;6.940;2023-05-20T20:19:36;15.44;49.84
33109;HTU21D;19481;51.118;6.940;2023-05-20T20:24:38;15.29;50.23
33109;HTU21D;19481;51.118;6.940;2023-05-20T20:29:39;15.26;50.34
33109;HTU21D;19481;51.118;6.940;2023-05-20T20:34:43;15.34;49.93
33109;HTU21D;19481;51.118;6.940;2023-05-20T20:39:45;15.18;50.39
33109;HTU21D;19481;51.118;6.940;2023-05-20T20:44:47;15.19;50.29
33109;HTU21D;19481;51.118;6.940;2023-05-20T20:49:50;15.16;50.51
33109;HTU21D;19481;51.118;6.940;2023-05-20T20:54:51;15.15;50.63
33109;HTU21D;19481;51.118;6.940;2023-05-20T20:59:53;15.21;50.63
33109;HTU21D;19481;51.118;6.940;2023-05-20T21:04:58;15.15;50.77
33109;HTU21D;19481;51.118;6.940;2023-05-20T21:10:01;15.08;51.04
33109;HTU21D;19481;51.118;6.940;2023-05-20T21:15:03;15.09;51.17
33109;HTU21D;19481;51.118;6.940;2023-05-20T21:20:07;15.13;51.05
33109;HTU21D;19481;51.118;6.940;2023-05-20T21:25:09;15.04;51.40
33109;HTU21D;19481;51.118;6.940;2023-05-20T21:30:10;15.08;51.42
33109;HTU21D;19481;51.118;6.940;2023-05-20T21:35:14;15.12;51.27
33109;HTU21D;19481;51.118;6.940;2023-05-20T21:40:15;15.08;51.59
33109;HTU21D;19481;51.118;6.940;2023-05-20T21:45:17;14.98;51.85
33109;HTU21D;19481;51.118;6.940;2023-05-20T21:50:20;15.07;51.71
33109;HTU21D;19481;51.118;6.940;2023-05-20T21:55:21;15.09;51.64
33109;HTU21D;19481;51.118;6.940;2023-05-20T22:00:23;15.07;51.84
33109;HTU21D;19481;51.118;6.940;2023-05-20T22:05:26;15.08;51.88
33109;HTU21D;19481;51.118;6.940;2023-05-20T22:10:28;15.01;52.12
33109;HTU21D;19481;51.118;6.940;2023-05-20T22:15:33;15.01;52.31
33109;HTU21D;19481;51.118;6.940;2023-05-20T22:20:36;15.03;52.09
33109;HTU21D;19481;51.118;6.940;2023-05-20T22:25:37;15.06;52.20
33109;HTU21D;19481;51.118;6.940;2023-05-20T22:30:39;15.08;52.17
33109;HTU21D;19481;51.118;6.940;2023-05-20T22:35:42;15.10;52.24
33109;HTU21D;19481;51.118;6.940;2023-05-20T22:40:44;15.04;52.43
33109;HTU21D;19481;51.118;6.940;2023-05-20T22:45:45;15.07;52.52
33109;HTU21D;19481;51.118;6.940;2023-05-20T22:50:48;15.09;52.56
33109;HTU21D;19481;51.118;6.940;2023-05-20T22:55:50;15.06;52.76
33109;HTU21D;19481;51.118;6.940;2023-05-20T23:00:52;15.08;52.79
33109;HTU21D;19481;51.118;6.940;2023-05-20T23:05:55;14.96;53.27
33109;HTU21D;19481;51.118;6.940;2023-05-20T23:10:56;14.98;53.25
33109;HTU21D;19481;51.118;6.940;2023-05-20T23:15:58;14.95;53.45
33109;HTU21D;19481;51.118;6.940;2023-05-20T23:21:02;14.93;53.41
33109;HTU21D;19481;51.118;6.940;2023-05-20T23:26:03;14.86;53.65
33109;HTU21D;19481;51.118;6.940;2023-05-20T23:31:05;14.80;53.85
33109;HTU21D;19481;51.118;6.940;2023-05-20T23:36:10;14.65;54.28
33109;HTU21D;19481;51.118;6.940;2023-05-20T23:41:11;14.63;54.39
33109;HTU21D;19481;51.118;6.940;2023-05-20T23:46:13;14.51;54.72
33109;HTU21D;19481;51.118;6.940;2023-05-20T23:51:16;14.42;54.87
33109;HTU21D;19481;51.118;6.940;2023-05-20T23:56:17;14.40;54.86
